sensor_id;sensor_type;location;lat;lon;timestamp;temperature;humidity
49236;DHT22;35067;48.134;8.378;2023-06-19T00:00:37;18.10;63.20
49236;DHT22;35067;48.134;8.378;2023-06-19T00:01:40;18.20;64.00
49236;DHT22;35067;48.134;8.378;2023-06-19T00:02:41;18.10;64.10
49236;DHT22;35067;48.134;8.378;2023-06-19T00:03:42;18.20;64.20
49236;DHT22;35067;48.134;8.378;2023-06-19T00:04:43;18.20;64.30
49236;DHT22;35067;48.134;8.378;2023-06-19T00:05:44;18.20;64.10
49236;DHT22;35067;48.134;8.378;2023-06-19T00:06:45;18.20;64.00
49236;DHT22;35067;48.134;8.378;2023-06-19T00:07:46;18.20;63.80
49236;DHT22;35067;48.134;8.378;2023-06-19T00:08:47;18.20;63.60
49236;DHT22;35067;48.134;8.378;2023-06-19T00:09:47;18.20;63.40
49236;DHT22;35067;48.134;8.378;2023-06-19T00:10:48;18.20;64.00
49236;DHT22;35067;48.134;8.378;2023-06-19T00:11:49;18.20;63.50
49236;DHT22;35067;48.134;8.378;2023-06-19T00:12:49;18.20;62.90
49236;DHT22;35067;48.134;8.378;2023-06-19T00:13:50;18.20;62.80
49236;DHT22;35067;48.134;8.378;2023-06-19T00:14:51;18.10;63.10
49236;DHT22;35067;48.134;8.378;2023-06-19T00:15:52;18.10;62.90
49236;DHT22;35067;48.134;8.378;2023-06-19T00:16:53;18.10;62.30
49236;DHT22;35067;48.134;8.378;2023-06-19T00:17:53;18.20;62.20
49236;DHT22;35067;48.134;8.378;2023-06-19T00:18:54;18.10;62.60
49236;DHT22;35067;48.134;8.378;2023-06-19T00:19:57;18.10;62.30
49236;DHT22;35067;48.134;8.378;2023-06-19T00:20:58;18.10;61.80
49236;DHT22;35067;48.134;8.378;2023-06-19T00:21:59;18.10;61.50
49236;DHT22;35067;48.134;8.378;2023-06-19T00:23:00;18.10;61.50
49236;DHT22;35067;48.134;8.378;2023-06-19T00:24:02;18.20;62.00
49236;DHT22;35067;48.134;8.378;2023-06-19T00:25:03;18.10;62.30
49236;DHT22;35067;48.134;8.378;2023-06-19T00:26:05;18.10;62.20
49236;DHT22;35067;48.134;8.378;2023-06-19T00:27:07;18.10;62.40
49236;DHT22;35067;48.134;8.378;2023-06-19T00:28:08;18.10;63.50
49236;DHT22;35067;48.134;8.378;2023-06-19T00:29:11;18.10;62.80
49236;DHT22;35067;48.134;8.378;2023-06-19T00:30:13;17.90;64.30
49236;DHT22;35067;48.134;8.378;2023-06-19T00:31:13;17.80;65.40
49236;DHT22;35067;48.134;8.378;2023-06-19T00:32:15;17.60;66.00
49236;DHT22;35067;48.134;8.378;2023-06-19T00:33:17;17.50;66.50
49236;DHT22;35067;48.134;8.378;2023-06-19T00:34:18;17.60;67.80
49236;DHT22;35067;48.134;8.378;2023-06-19T00:35:18;17.80;67.20
49236;DHT22;35067;48.134;8.378;2023-06-19T00:36:19;18.10;66.50
49236;DHT22;35067;48.134;8.378;2023-06-19T00:37:21;18.40;65.10
49236;DHT22;35067;48.134;8.378;2023-06-19T00:38:22;18.70;65.10
49236;DHT22;35067;48.134;8.378;2023-06-19T00:39:24;18.80;63.10
49236;DHT22;35067;48.134;8.378;2023-06-19T00:40:30;18.90;63.10
49236;DHT22;35067;48.134;8.378;2023-06-19T00:41:32;19.00;63.00
49236;DHT22;35067;48.134;8.378;2023-06-19T00:42:34;19.00;63.10
49236;DHT22;35067;48.134;8.378;2023-06-19T00:43:37;19.00;63.80
49236;DHT22;35067;48.134;8.378;2023-06-19T00:44:38;18.90;64.40
49236;DHT22;35067;48.134;8.378;2023-06-19T00:45:39;18.90;64.70
49236;DHT22;35067;48.134;8.378;2023-06-19T00:46:40;18.90;64.90
49236;DHT22;35067;48.134;8.378;2023-06-19T00:47:41;18.90;66.30
49236;DHT22;35067;48.134;8.378;2023-06-19T00:48:42;18.90;65.20
49236;DHT22;35067;48.134;8.378;2023-06-19T00:49:43;18.80;65.40
49236;DHT22;35067;48.134;8.378;2023-06-19T00:50:44;18.80;65.50
49236;DHT22;35067;48.134;8.378;2023-06-19T00:51:45;18.80;65.90
49236;DHT22;35067;48.134;8.378;2023-06-19T00:52:45;18.80;66.20
49236;DHT22;35067;48.134;8.378;2023-06-19T00:53:46;18.70;66.80
49236;DHT22;35067;48.134;8.378;2023-06-19T00:54:47;18.60;66.90
49236;DHT22;35067;48.134;8.378;2023-06-19T00:55:48;18.60;67.30
49236;DHT22;35067;48.134;8.378;2023-06-19T00:56:51;18.60;67.50
49236;DHT22;35067;48.134;8.378;2023-06-19T00:57:54;18.50;67.90
49236;DHT22;35067;48.134;8.378;2023-06-19T00:58:55;18.50;68.20
49236;DHT22;35067;48.134;8.378;2023-06-19T00:59:57;18.40;68.50
49236;DHT22;35067;48.134;8.378;2023-06-19T01:00:58;18.40;68.80
49236;DHT22;35067;48.134;8.378;2023-06-19T01:01:59;18.40;69.10
49236;DHT22;35067;48.134;8.378;2023-06-19T01:03:00;18.30;69.70
49236;DHT22;35067;48.134;8.378;2023-06-19T01:04:01;18.20;70.10
49236;DHT22;35067;48.134;8.378;2023-06-19T01:05:02;18.20;70.30
49236;DHT22;35067;48.134;8.378;2023-06-19T01:06:14;18.20;70.30
49236;DHT22;35067;48.134;8.378;2023-06-19T01:07:37;18.20;70.40
49236;DHT22;35067;48.134;8.378;2023-06-19T01:09:01;18.10;71.10
49236;DHT22;35067;48.134;8.378;2023-06-19T01:10:06;18.00;71.90
49236;DHT22;35067;48.134;8.378;2023-06-19T01:11:09;18.00;72.10
49236;DHT22;35067;48.134;8.378;2023-06-19T01:12:26;18.00;72.20
49236;DHT22;35067;48.134;8.378;2023-06-19T01:13:44;17.90;72.10
49236;DHT22;35067;48.134;8.378;2023-06-19T01:15:06;17.90;72.30
49236;DHT22;35067;48.134;8.378;2023-06-19T01:16:09;17.90;72.50
49236;DHT22;35067;48.134;8.378;2023-06-19T01:17:10;17.80;72.80
49236;DHT22;35067;48.134;8.378;2023-06-19T01:18:12;17.80;72.90
49236;DHT22;35067;48.134;8.378;2023-06-19T01:19:18;17.80;73.20
49236;DHT22;35067;48.134;8.378;2023-06-19T01:20:20;17.80;73.30
49236;DHT22;35067;48.134;8.378;2023-06-19T01:21:21;17.70;73.20
49236;DHT22;35067;48.134;8.378;2023-06-19T01:22:31;17.70;73.40
49236;DHT22;35067;48.134;8.378;2023-06-19T01:23:32;17.70;73.80
49236;DHT22;35067;48.134;8.378;2023-06-19T01:24:34;17.70;74.10
49236;DHT22;35067;48.134;8.378;2023-06-19T01:25:35;17.60;74.20
49236;DHT22;35067;48.134;8.378;2023-06-19T01:26:37;17.60;74.00
49236;DHT22;35067;48.134;8.378;2023-06-19T01:27:38;17.60;74.10
49236;DHT22;35067;48.134;8.378;2023-06-19T01:28:41;17.60;74.40
49236;DHT22;35067;48.134;8.378;2023-06-19T01:29:43;17.60;74.80
49236;DHT22;35067;48.134;8.378;2023-06-19T01:30:45;17.60;74.90
49236;DHT22;35067;48.134;8.378;2023-06-19T01:32:28;17.60;74.90
49236;DHT22;35067;48.134;8.378;2023-06-19T01:33:26;17.60;74.80
49236;DHT22;35067;48.134;8.378;2023-06-19T01:34:30;17.60;74.70
49236;DHT22;35067;48.134;8.378;2023-06-19T01:35:33;17.60;74.60
49236;DHT22;35067;48.134;8.378;2023-06-19T01:36:36;17.60;74.60
49236;DHT22;35067;48.134;8.378;2023-06-19T01:37:38;17.60;74.90
49236;DHT22;35067;48.134;8.378;2023-06-19T01:38:42;17.60;74.80
49236;DHT22;35067;48.134;8.378;2023-06-19T01:39:45;17.60;76.00
49236;DHT22;35067;48.134;8.378;2023-06-19T01:40:48;17.60;75.00
49236;DHT22;35067;48.134;8.378;2023-06-19T01:41:50;17.60;75.00
49236;DHT22;35067;48.134;8.378;2023-06-19T01:42:53;17.60;75.00
49236;DHT22;35067;48.134;8.378;2023-06-19T01:43:56;17.60;74.60
49236;DHT22;35067;48.134;8.378;2023-06-19T01:44:58;17.60;74.90
49236;DHT22;35067;48.134;8.378;2023-06-19T01:45:59;17.60;74.80
49236;DHT22;35067;48.134;8.378;2023-06-19T01:47:08;17.60;74.80
49236;DHT22;35067;48.134;8.378;2023-06-19T01:48:14;17.60;74.70
49236;DHT22;35067;48.134;8.378;2023-06-19T01:49:15;17.60;74.60
49236;DHT22;35067;48.134;8.378;2023-06-19T01:50:16;17.60;74.60
49236;DHT22;35067;48.134;8.378;2023-06-19T01:51:17;17.60;74.70
49236;DHT22;35067;48.134;8.378;2023-06-19T01:52:18;17.60;75.00
49236;DHT22;35067;48.134;8.378;2023-06-19T01:53:19;17.50;75.00
49236;DHT22;35067;48.134;8.378;2023-06-19T01:54:20;17.50;75.10
49236;DHT22;35067;48.134;8.378;2023-06-19T01:55:21;17.50;75.00
49236;DHT22;35067;48.134;8.378;2023-06-19T01:56:21;17.50;75.10
49236;DHT22;35067;48.134;8.378;2023-06-19T01:57:25;17.60;75.10
49236;DHT22;35067;48.134;8.378;2023-06-19T01:58:26;17.50;75.30
49236;DHT22;35067;48.134;8.378;2023-06-19T01:59:27;17.50;75.30
49236;DHT22;35067;48.134;8.378;2023-06-19T02:00:27;17.50;75.30
49236;DHT22;35067;48.134;8.378;2023-06-19T02:01:29;17.50;75.10
49236;DHT22;35067;48.134;8.378;2023-06-19T02:02:29;17.60;74.80
49236;DHT22;35067;48.134;8.378;2023-06-19T02:03:30;17.60;75.00
49236;DHT22;35067;48.134;8.378;2023-06-19T02:04:31;17.60;74.80
49236;DHT22;35067;48.134;8.378;2023-06-19T02:05:31;17.60;74.70
49236;DHT22;35067;48.134;8.378;2023-06-19T02:06:32;17.60;74.60
49236;DHT22;35067;48.134;8.378;2023-06-19T02:07:34;17.60;74.40
49236;DHT22;35067;48.134;8.378;2023-06-19T02:08:35;17.60;74.50
49236;DHT22;35067;48.134;8.378;2023-06-19T02:09:37;17.60;74.30
49236;DHT22;35067;48.134;8.378;2023-06-19T02:10:38;17.60;74.20
49236;DHT22;35067;48.134;8.378;2023-06-19T02:11:39;17.60;74.00
49236;DHT22;35067;48.134;8.378;2023-06-19T02:12:39;17.70;73.90
49236;DHT22;35067;48.134;8.378;2023-06-19T02:13:42;17.80;73.50
49236;DHT22;35067;48.134;8.378;2023-06-19T02:14:43;17.80;73.10
49236;DHT22;35067;48.134;8.378;2023-06-19T02:15:43;17.80;72.90
49236;DHT22;35067;48.134;8.378;2023-06-19T02:16:44;17.90;73.00
49236;DHT22;35067;48.134;8.378;2023-06-19T02:17:45;17.90;72.60
49236;DHT22;35067;48.134;8.378;2023-06-19T02:18:46;17.90;73.00
49236;DHT22;35067;48.134;8.378;2023-06-19T02:19:47;17.80;73.00
49236;DHT22;35067;48.134;8.378;2023-06-19T02:20:48;17.90;72.90
49236;DHT22;35067;48.134;8.378;2023-06-19T02:21:49;17.90;72.60
49236;DHT22;35067;48.134;8.378;2023-06-19T02:22:51;17.90;72.90
49236;DHT22;35067;48.134;8.378;2023-06-19T02:23:52;17.90;72.70
49236;DHT22;35067;48.134;8.378;2023-06-19T02:24:55;17.90;72.30
49236;DHT22;35067;48.134;8.378;2023-06-19T02:25:56;17.90;72.50
49236;DHT22;35067;48.134;8.378;2023-06-19T02:26:57;17.90;72.60
49236;DHT22;35067;48.134;8.378;2023-06-19T02:27:58;18.00;72.50
49236;DHT22;35067;48.134;8.378;2023-06-19T02:28:59;17.90;72.30
49236;DHT22;35067;48.134;8.378;2023-06-19T02:30:00;18.10;73.20
49236;DHT22;35067;48.134;8.378;2023-06-19T02:31:01;18.10;71.50
49236;DHT22;35067;48.134;8.378;2023-06-19T02:32:02;18.20;71.30
49236;DHT22;35067;48.134;8.378;2023-06-19T02:33:03;18.20;71.30
49236;DHT22;35067;48.134;8.378;2023-06-19T02:34:05;18.20;71.80
49236;DHT22;35067;48.134;8.378;2023-06-19T02:35:09;18.20;71.70
49236;DHT22;35067;48.134;8.378;2023-06-19T02:36:11;18.10;72.60
49236;DHT22;35067;48.134;8.378;2023-06-19T02:37:11;18.00;73.40
49236;DHT22;35067;48.134;8.378;2023-06-19T02:38:12;18.00;73.20
49236;DHT22;35067;48.134;8.378;2023-06-19T02:39:15;18.00;74.00
49236;DHT22;35067;48.134;8.378;2023-06-19T02:40:16;17.90;74.30
49236;DHT22;35067;48.134;8.378;2023-06-19T02:41:16;17.80;74.50
49236;DHT22;35067;48.134;8.378;2023-06-19T02:42:19;17.80;75.20
49236;DHT22;35067;48.134;8.378;2023-06-19T02:43:19;17.70;76.40
49236;DHT22;35067;48.134;8.378;2023-06-19T02:44:20;17.60;77.40
49236;DHT22;35067;48.134;8.378;2023-06-19T02:45:21;17.60;78.50
49236;DHT22;35067;48.134;8.378;2023-06-19T02:46:22;17.60;78.60
49236;DHT22;35067;48.134;8.378;2023-06-19T02:47:22;17.70;78.80
49236;DHT22;35067;48.134;8.378;2023-06-19T02:48:23;17.70;79.40
49236;DHT22;35067;48.134;8.378;2023-06-19T02:49:24;17.80;79.50
49236;DHT22;35067;48.134;8.378;2023-06-19T02:50:25;17.80;80.20
49236;DHT22;35067;48.134;8.378;2023-06-19T02:51:26;17.80;79.30
49236;DHT22;35067;48.134;8.378;2023-06-19T02:52:27;17.60;80.70
49236;DHT22;35067;48.134;8.378;2023-06-19T02:53:28;17.50;81.60
49236;DHT22;35067;48.134;8.378;2023-06-19T02:54:29;17.50;82.90
49236;DHT22;35067;48.134;8.378;2023-06-19T02:55:29;17.50;84.60
49236;DHT22;35067;48.134;8.378;2023-06-19T02:56:31;17.40;85.50
49236;DHT22;35067;48.134;8.378;2023-06-19T02:57:32;17.50;85.80
49236;DHT22;35067;48.134;8.378;2023-06-19T02:58:33;17.40;86.10
49236;DHT22;35067;48.134;8.378;2023-06-19T02:59:34;17.40;86.90
49236;DHT22;35067;48.134;8.378;2023-06-19T03:00:35;17.40;86.70
49236;DHT22;35067;48.134;8.378;2023-06-19T03:01:36;17.40;88.10
49236;DHT22;35067;48.134;8.378;2023-06-19T03:02:37;17.40;88.40
49236;DHT22;35067;48.134;8.378;2023-06-19T03:03:37;17.30;87.60
49236;DHT22;35067;48.134;8.378;2023-06-19T03:04:39;17.30;88.30
49236;DHT22;35067;48.134;8.378;2023-06-19T03:05:41;17.20;90.50
49236;DHT22;35067;48.134;8.378;2023-06-19T03:06:42;17.10;91.00
49236;DHT22;35067;48.134;8.378;2023-06-19T03:07:43;17.00;92.20
49236;DHT22;35067;48.134;8.378;2023-06-19T03:08:44;17.00;93.20
49236;DHT22;35067;48.134;8.378;2023-06-19T03:09:44;17.00;93.20
49236;DHT22;35067;48.134;8.378;2023-06-19T03:10:45;17.10;93.10
49236;DHT22;35067;48.134;8.378;2023-06-19T03:11:46;17.10;93.30
49236;DHT22;35067;48.134;8.378;2023-06-19T03:12:47;17.10;93.50
49236;DHT22;35067;48.134;8.378;2023-06-19T03:13:53;17.10;95.40
49236;DHT22;35067;48.134;8.378;2023-06-19T03:14:54;17.10;96.80
49236;DHT22;35067;48.134;8.378;2023-06-19T03:15:55;17.10;97.20
49236;DHT22;35067;48.134;8.378;2023-06-19T03:16:56;17.20;97.40
49236;DHT22;35067;48.134;8.378;2023-06-19T03:17:56;17.20;99.20
49236;DHT22;35067;48.134;8.378;2023-06-19T03:18:57;17.20;99.30
49236;DHT22;35067;48.134;8.378;2023-06-19T03:19:58;17.20;98.90
49236;DHT22;35067;48.134;8.378;2023-06-19T03:20:58;17.20;98.90
49236;DHT22;35067;48.134;8.378;2023-06-19T03:21:59;17.10;99.20
49236;DHT22;35067;48.134;8.378;2023-06-19T03:23:00;17.20;99.20
49236;DHT22;35067;48.134;8.378;2023-06-19T03:24:02;17.10;99.40
49236;DHT22;35067;48.134;8.378;2023-06-19T03:25:04;17.20;99.90
49236;DHT22;35067;48.134;8.378;2023-06-19T03:26:04;17.10;99.90
49236;DHT22;35067;48.134;8.378;2023-06-19T03:27:05;17.00;99.90
49236;DHT22;35067;48.134;8.378;2023-06-19T03:28:06;16.90;99.90
49236;DHT22;35067;48.134;8.378;2023-06-19T03:29:07;16.90;99.90
49236;DHT22;35067;48.134;8.378;2023-06-19T03:30:08;16.90;99.90
49236;DHT22;35067;48.134;8.378;2023-06-19T03:31:14;16.80;99.90
49236;DHT22;35067;48.134;8.378;2023-06-19T03:32:15;16.90;99.90
49236;DHT22;35067;48.134;8.378;2023-06-19T03:33:16;17.00;99.90
49236;DHT22;35067;48.134;8.378;2023-06-19T03:34:16;17.00;99.90
49236;DHT22;35067;48.134;8.378;2023-06-19T03:35:17;16.90;99.90
49236;DHT22;35067;48.134;8.378;2023-06-19T03:36:18;16.90;99.90
49236;DHT22;35067;48.134;8.378;2023-06-19T03:37:19;17.00;99.90
49236;DHT22;35067;48.134;8.378;2023-06-19T03:38:20;17.00;99.90
49236;DHT22;35067;48.134;8.378;2023-06-19T03:39:24;17.00;99.90
49236;DHT22;35067;48.134;8.378;2023-06-19T03:40:25;17.00;99.90
49236;DHT22;35067;48.134;8.378;2023-06-19T03:41:26;17.00;99.90
49236;DHT22;35067;48.134;8.378;2023-06-19T03:42:26;17.00;99.90
49236;DHT22;35067;48.134;8.378;2023-06-19T03:43:27;17.10;99.90
49236;DHT22;35067;48.134;8.378;2023-06-19T03:44:28;17.00;99.90
49236;DHT22;35067;48.134;8.378;2023-06-19T03:45:28;17.00;99.90
49236;DHT22;35067;48.134;8.378;2023-06-19T03:46:29;17.10;99.90
49236;DHT22;35067;48.134;8.378;2023-06-19T03:47:30;17.00;99.90
49236;DHT22;35067;48.134;8.378;2023-06-19T03:48:31;17.00;99.90
49236;DHT22;35067;48.134;8.378;2023-06-19T03:49:34;16.90;99.90
49236;DHT22;35067;48.134;8.378;2023-06-19T03:50:35;16.80;99.90
49236;DHT22;35067;48.134;8.378;2023-06-19T03:51:35;16.90;99.90
49236;DHT22;35067;48.134;8.378;2023-06-19T03:52:36;16.80;99.90
49236;DHT22;35067;48.134;8.378;2023-06-19T03:53:37;16.90;99.90
49236;DHT22;35067;48.134;8.378;2023-06-19T03:54:38;16.90;99.90
49236;DHT22;35067;48.134;8.378;2023-06-19T03:55:40;16.90;99.90
49236;DHT22;35067;48.134;8.378;2023-06-19T03:56:40;16.80;99.90
49236;DHT22;35067;48.134;8.378;2023-06-19T03:57:41;16.80;99.90
49236;DHT22;35067;48.134;8.378;2023-06-19T03:58:42;16.80;99.90
49236;DHT22;35067;48.134;8.378;2023-06-19T03:59:43;16.90;99.90
49236;DHT22;35067;48.134;8.378;2023-06-19T04:00:43;16.90;99.90
49236;DHT22;35067;48.134;8.378;2023-06-19T04:01:44;16.90;99.90
49236;DHT22;35067;48.134;8.378;2023-06-19T04:02:45;17.00;99.90
49236;DHT22;35067;48.134;8.378;2023-06-19T04:03:49;17.10;99.90
49236;DHT22;35067;48.134;8.378;2023-06-19T04:04:50;17.20;99.90
49236;DHT22;35067;48.134;8.378;2023-06-19T04:05:51;17.20;99.90
49236;DHT22;35067;48.134;8.378;2023-06-19T04:06:52;17.20;99.90
49236;DHT22;35067;48.134;8.378;2023-06-19T04:07:52;17.30;99.90
49236;DHT22;35067;48.134;8.378;2023-06-19T04:08:53;17.20;99.90
49236;DHT22;35067;48.134;8.378;2023-06-19T04:09:57;17.10;99.90
49236;DHT22;35067;48.134;8.378;2023-06-19T04:10:59;17.10;99.90
49236;DHT22;35067;48.134;8.378;2023-06-19T04:12:00;17.10;99.90
49236;DHT22;35067;48.134;8.378;2023-06-19T04:13:01;17.10;99.90
49236;DHT22;35067;48.134;8.378;2023-06-19T04:14:03;17.10;99.90
49236;DHT22;35067;48.134;8.378;2023-06-19T04:15:04;17.20;99.90
49236;DHT22;35067;48.134;8.378;2023-06-19T04:16:05;17.20;99.90
49236;DHT22;35067;48.134;8.378;2023-06-19T04:17:06;17.20;99.90
49236;DHT22;35067;48.134;8.378;2023-06-19T04:18:06;17.30;99.90
49236;DHT22;35067;48.134;8.378;2023-06-19T04:19:07;17.30;99.90
49236;DHT22;35067;48.134;8.378;2023-06-19T04:20:08;17.30;99.90
49236;DHT22;35067;48.134;8.378;2023-06-19T04:21:11;17.40;99.90
49236;DHT22;35067;48.134;8.378;2023-06-19T04:22:13;17.30;99.90
49236;DHT22;35067;48.134;8.378;2023-06-19T04:23:13;17.40;99.90
49236;DHT22;35067;48.134;8.378;2023-06-19T04:24:14;17.30;99.90
49236;DHT22;35067;48.134;8.378;2023-06-19T04:25:15;17.30;99.90
49236;DHT22;35067;48.134;8.378;2023-06-19T04:26:15;17.30;99.90
49236;DHT22;35067;48.134;8.378;2023-06-19T04:27:16;17.30;99.90
49236;DHT22;35067;48.134;8.378;2023-06-19T04:28:17;17.20;99.90
49236;DHT22;35067;48.134;8.378;2023-06-19T04:29:17;17.20;99.90
49236;DHT22;35067;48.134;8.378;2023-06-19T04:30:18;17.30;99.90
49236;DHT22;35067;48.134;8.378;2023-06-19T04:31:21;17.30;99.90
49236;DHT22;35067;48.134;8.378;2023-06-19T04:32:22;17.40;99.90
49236;DHT22;35067;48.134;8.378;2023-06-19T04:33:23;17.40;99.90
49236;DHT22;35067;48.134;8.378;2023-06-19T04:34:25;17.30;99.90
49236;DHT22;35067;48.134;8.378;2023-06-19T04:35:26;17.20;99.90
49236;DHT22;35067;48.134;8.378;2023-06-19T04:36:27;17.30;99.90
49236;DHT22;35067;48.134;8.378;2023-06-19T04:37:28;17.30;99.90
49236;DHT22;35067;48.134;8.378;2023-06-19T04:38:28;17.30;99.90
49236;DHT22;35067;48.134;8.378;2023-06-19T04:39:29;17.20;99.90
49236;DHT22;35067;48.134;8.378;2023-06-19T04:40:30;17.30;99.90
49236;DHT22;35067;48.134;8.378;2023-06-19T04:41:31;17.30;99.90
49236;DHT22;35067;48.134;8.378;2023-06-19T04:42:31;17.30;99.90
49236;DHT22;35067;48.134;8.378;2023-06-19T04:43:32;17.20;99.90
49236;DHT22;35067;48.134;8.378;2023-06-19T04:44:34;17.20;99.90
49236;DHT22;35067;48.134;8.378;2023-06-19T04:45:35;17.20;99.90
49236;DHT22;35067;48.134;8.378;2023-06-19T04:46:35;17.20;99.90
49236;DHT22;35067;48.134;8.378;2023-06-19T04:47:38;17.30;99.90
49236;DHT22;35067;48.134;8.378;2023-06-19T04:48:39;17.30;99.90
49236;DHT22;35067;48.134;8.378;2023-06-19T04:49:41;17.40;99.90
49236;DHT22;35067;48.134;8.378;2023-06-19T04:50:42;17.40;99.90
49236;DHT22;35067;48.134;8.378;2023-06-19T04:51:43;17.40;99.90
49236;DHT22;35067;48.134;8.378;2023-06-19T04:52:44;17.40;99.90
49236;DHT22;35067;48.134;8.378;2023-06-19T04:53:49;17.30;99.90
49236;DHT22;35067;48.134;8.378;2023-06-19T04:54:49;17.30;99.90
49236;DHT22;35067;48.134;8.378;2023-06-19T04:55:50;17.30;99.90
49236;DHT22;35067;48.134;8.378;2023-06-19T04:56:51;17.40;99.90
49236;DHT22;35067;48.134;8.378;2023-06-19T04:57:53;17.30;99.90
49236;DHT22;35067;48.134;8.378;2023-06-19T04:58:55;17.30;99.90
49236;DHT22;35067;48.134;8.378;2023-06-19T04:59:59;17.30;99.90
49236;DHT22;35067;48.134;8.378;2023-06-19T05:01:00;17.30;99.90
49236;DHT22;35067;48.134;8.378;2023-06-19T05:02:01;17.30;99.90
49236;DHT22;35067;48.134;8.378;2023-06-19T05:03:01;17.30;99.90
49236;DHT22;35067;48.134;8.378;2023-06-19T05:04:03;17.30;99.90
49236;DHT22;35067;48.134;8.378;2023-06-19T05:05:04;17.30;99.90
49236;DHT22;35067;48.134;8.378;2023-06-19T05:06:05;17.40;99.90
49236;DHT22;35067;48.134;8.378;2023-06-19T05:07:06;17.40;99.90
49236;DHT22;35067;48.134;8.378;2023-06-19T05:08:06;17.40;99.90
49236;DHT22;35067;48.134;8.378;2023-06-19T05:09:07;17.40;99.90
49236;DHT22;35067;48.134;8.378;2023-06-19T05:10:08;17.40;99.90
49236;DHT22;35067;48.134;8.378;2023-06-19T05:11:09;17.40;99.90
49236;DHT22;35067;48.134;8.378;2023-06-19T05:12:10;17.30;99.90
49236;DHT22;35067;48.134;8.378;2023-06-19T05:13:11;17.30;99.90
49236;DHT22;35067;48.134;8.378;2023-06-19T05:14:12;17.20;99.90
49236;DHT22;35067;48.134;8.378;2023-06-19T05:15:14;17.20;99.90
49236;DHT22;35067;48.134;8.378;2023-06-19T05:16:15;17.20;99.90
49236;DHT22;35067;48.134;8.378;2023-06-19T05:17:16;17.40;99.90
49236;DHT22;35067;48.134;8.378;2023-06-19T05:18:17;17.40;99.90
49236;DHT22;35067;48.134;8.378;2023-06-19T05:19:18;17.50;99.90
49236;DHT22;35067;48.134;8.378;2023-06-19T05:20:19;17.60;99.90
49236;DHT22;35067;48.134;8.378;2023-06-19T05:21:20;17.70;99.90
49236;DHT22;35067;48.134;8.378;2023-06-19T05:22:21;17.60;99.90
49236;DHT22;35067;48.134;8.378;2023-06-19T05:23:24;17.60;99.90
49236;DHT22;35067;48.134;8.378;2023-06-19T05:24:26;17.60;99.90
49236;DHT22;35067;48.134;8.378;2023-06-19T05:25:27;17.50;99.90
49236;DHT22;35067;48.134;8.378;2023-06-19T05:26:28;17.50;99.90
49236;DHT22;35067;48.134;8.378;2023-06-19T05:27:28;17.40;99.90
49236;DHT22;35067;48.134;8.378;2023-06-19T05:28:29;17.40;99.90
49236;DHT22;35067;48.134;8.378;2023-06-19T05:29:30;17.50;99.90
49236;DHT22;35067;48.134;8.378;2023-06-19T05:30:31;17.70;99.90
49236;DHT22;35067;48.134;8.378;2023-06-19T05:31:32;17.80;99.90
49236;DHT22;35067;48.134;8.378;2023-06-19T05:32:33;17.90;99.90
49236;DHT22;35067;48.134;8.378;2023-06-19T05:33:33;18.00;99.90
49236;DHT22;35067;48.134;8.378;2023-06-19T05:34:34;18.10;99.40
49236;DHT22;35067;48.134;8.378;2023-06-19T05:35:35;18.20;99.30
49236;DHT22;35067;48.134;8.378;2023-06-19T05:36:35;18.30;99.70
49236;DHT22;35067;48.134;8.378;2023-06-19T05:37:36;18.40;99.90
49236;DHT22;35067;48.134;8.378;2023-06-19T05:38:39;18.50;99.90
49236;DHT22;35067;48.134;8.378;2023-06-19T05:39:39;18.70;99.90
49236;DHT22;35067;48.134;8.378;2023-06-19T05:40:40;18.70;99.80
49236;DHT22;35067;48.134;8.378;2023-06-19T05:41:41;18.70;99.40
49236;DHT22;35067;48.134;8.378;2023-06-19T05:42:41;18.80;98.90
49236;DHT22;35067;48.134;8.378;2023-06-19T05:43:42;18.90;97.60
49236;DHT22;35067;48.134;8.378;2023-06-19T05:44:43;19.00;98.60
49236;DHT22;35067;48.134;8.378;2023-06-19T05:45:44;19.00;99.90
49236;DHT22;35067;48.134;8.378;2023-06-19T05:46:45;19.00;99.90
49236;DHT22;35067;48.134;8.378;2023-06-19T05:47:45;19.00;99.50
49236;DHT22;35067;48.134;8.378;2023-06-19T05:48:47;19.10;98.40
49236;DHT22;35067;48.134;8.378;2023-06-19T05:49:48;19.10;98.40
49236;DHT22;35067;48.134;8.378;2023-06-19T05:50:49;19.10;98.30
49236;DHT22;35067;48.134;8.378;2023-06-19T05:51:50;19.10;97.60
49236;DHT22;35067;48.134;8.378;2023-06-19T05:52:51;19.10;95.90
49236;DHT22;35067;48.134;8.378;2023-06-19T05:53:51;19.20;95.40
49236;DHT22;35067;48.134;8.378;2023-06-19T05:54:52;19.30;95.20
49236;DHT22;35067;48.134;8.378;2023-06-19T05:55:54;19.50;94.60
49236;DHT22;35067;48.134;8.378;2023-06-19T05:56:54;19.60;92.80
49236;DHT22;35067;48.134;8.378;2023-06-19T05:57:56;19.70;92.80
49236;DHT22;35067;48.134;8.378;2023-06-19T05:58:57;19.70;93.90
49236;DHT22;35067;48.134;8.378;2023-06-19T05:59:57;19.80;93.70
49236;DHT22;35067;48.134;8.378;2023-06-19T06:00:58;19.80;93.50
49236;DHT22;35067;48.134;8.378;2023-06-19T06:01:59;19.80;94.10
49236;DHT22;35067;48.134;8.378;2023-06-19T06:03:00;19.90;94.10
49236;DHT22;35067;48.134;8.378;2023-06-19T06:04:01;19.90;92.90
49236;DHT22;35067;48.134;8.378;2023-06-19T06:05:02;20.00;93.00
49236;DHT22;35067;48.134;8.378;2023-06-19T06:06:02;20.10;91.40
49236;DHT22;35067;48.134;8.378;2023-06-19T06:07:05;20.10;91.10
49236;DHT22;35067;48.134;8.378;2023-06-19T06:08:06;20.10;91.80
49236;DHT22;35067;48.134;8.378;2023-06-19T06:09:07;20.20;91.80
49236;DHT22;35067;48.134;8.378;2023-06-19T06:10:11;20.40;91.20
49236;DHT22;35067;48.134;8.378;2023-06-19T06:11:12;20.40;90.40
49236;DHT22;35067;48.134;8.378;2023-06-19T06:12:13;20.50;90.50
49236;DHT22;35067;48.134;8.378;2023-06-19T06:13:13;20.50;90.80
49236;DHT22;35067;48.134;8.378;2023-06-19T06:14:14;20.50;91.80
49236;DHT22;35067;48.134;8.378;2023-06-19T06:15:15;20.40;90.60
49236;DHT22;35067;48.134;8.378;2023-06-19T06:16:16;20.30;90.90
49236;DHT22;35067;48.134;8.378;2023-06-19T06:17:17;20.20;91.80
49236;DHT22;35067;48.134;8.378;2023-06-19T06:18:18;20.30;91.60
49236;DHT22;35067;48.134;8.378;2023-06-19T06:19:20;20.30;91.60
49236;DHT22;35067;48.134;8.378;2023-06-19T06:20:23;20.30;90.70
49236;DHT22;35067;48.134;8.378;2023-06-19T06:21:25;20.40;90.40
49236;DHT22;35067;48.134;8.378;2023-06-19T06:22:26;20.30;90.70
49236;DHT22;35067;48.134;8.378;2023-06-19T06:23:26;20.40;91.50
49236;DHT22;35067;48.134;8.378;2023-06-19T06:24:27;20.30;90.10
49236;DHT22;35067;48.134;8.378;2023-06-19T06:25:28;20.00;92.00
49236;DHT22;35067;48.134;8.378;2023-06-19T06:26:30;19.80;91.40
49236;DHT22;35067;48.134;8.378;2023-06-19T06:27:31;19.70;92.60
49236;DHT22;35067;48.134;8.378;2023-06-19T06:28:32;19.60;93.30
49236;DHT22;35067;48.134;8.378;2023-06-19T06:29:33;19.50;94.20